Pahoa, Hawaii
Current Conditions -  °F | °C
As of 1:53 AM on Monday 22 Dec 2014 (Local Time) from PHTO Reporting Station
Scattered Clouds Scattered Clouds  
Wind Chill: 67°   Ceiling: Unl
Heat Index: 67°   Visibility: 10mi
Dew Point: 61°   Wind: 7mph
Humidity: 81%   Direction: 220°SW
Pressure: 29.98"   Gusts: NA
Location:  19.49°N, 154.94°W
Report Text: PHTO 221153Z 22006KT 10SM SCT025 19/16 A2998 RMK AO2 SLP151 T01940161 10217 20194 58012 $
Loading
Personal Weather Stations






























Interactive Weather Map New forecast layout! Learn more

10-Day Weather Forecast

Advertisements
Track Severe Weather on mobile